Horse Creek, California
Current Conditions -  °F | °C
As of 3:53 PM on Sunday 23 Nov 2014 (Local Time) from KSIY Reporting Station
Clear Clear  
Wind Chill: 44°   Ceiling: Unl
Heat Index: 44°   Visibility: 10mi
Dew Point: 36°   Wind: 3mph
Humidity: 73%   Direction: 200°SSW
Pressure: 30.36"   Gusts: NA
Location:  41.8705°N, 122.912°W
Report Text: KSIY 232353Z AUTO 20003KT 10SM CLR 07/02 A3036 RMK AO2 SLP304 T00670022 10072 20006 56008
Loading
Personal Weather Stations






























Interactive Weather Map New forecast layout! Learn more

10-Day Weather Forecast

Advertisements
Track Severe Weather on mobile